AB1028 CYQT-CYQT
Flight info
| Callsign | AB1028 |
|---|---|
| Flight time | 0h 12m |
| Altitude | 15000 |
| Route | CYQT CYQT |
| Aircraft | C408/L-SDFGRY/S |
Departure
| Time | 2026-05-04 02:31 |
|---|---|
| Airport | Thunder Bay International Airport (CYQT) |
Arrival
| Time | 2026-05-04 02:44 |
|---|---|
| Airport | Thunder Bay International Airport (CYQT) |
| Time | Latitude | Longitude | Altitude | Speed | Heading |
|---|---|---|---|---|---|
| 2026-05-04 02:27 | 48.37210 | -89.31475 | 652 ft | 0 kts | 117° |
| 2026-05-04 02:28 | 48.37209 | -89.31472 | 652 ft | 3 kts | 117° |
| 2026-05-04 02:28 | 48.37228 | -89.31420 | 653 ft | 11 kts | 37° |
| 2026-05-04 02:28 | 48.37323 | -89.31312 | 654 ft | 22 kts | 37° |
| 2026-05-04 02:28 | 48.37412 | -89.31210 | 653 ft | 10 kts | 33° |
| 2026-05-04 02:29 | 48.37431 | -89.31195 | 652 ft | 0 kts | 17° |
| 2026-05-04 02:29 | 48.37464 | -89.31192 | 652 ft | 16 kts | 1° |
| 2026-05-04 02:29 | 48.37539 | -89.31128 | 653 ft | 21 kts | 72° |
| 2026-05-04 02:30 | 48.37591 | -89.30897 | 657 ft | 16 kts | 70° |
| 2026-05-04 02:30 | 48.37631 | -89.30724 | 653 ft | 22 kts | 72° |
| 2026-05-04 02:30 | 48.37662 | -89.30589 | 656 ft | 8 kts | 26° |
| 2026-05-04 02:30 | 48.37663 | -89.30637 | 655 ft | 14 kts | 229° |
| 2026-05-04 02:31 | 48.37588 | -89.30932 | 655 ft | 58 kts | 250° |
| 2026-05-04 02:31 | 48.37380 | -89.31823 | 690 ft | 113 kts | 249° |
| 2026-05-04 02:31 | 48.37092 | -89.32992 | 985 ft | 124 kts | 248° |
| 2026-05-04 02:31 | 48.36882 | -89.33801 | 1289 ft | 123 kts | 248° |
| 2026-05-04 02:32 | 48.36459 | -89.35263 | 1950 ft | 116 kts | 243° |
| 2026-05-04 02:32 | 48.36120 | -89.36475 | 1959 ft | 131 kts | 245° |
| 2026-05-04 02:32 | 48.35751 | -89.37772 | 1931 ft | 136 kts | 243° |
| 2026-05-04 02:32 | 48.35140 | -89.38845 | 1949 ft | 137 kts | 219° |
| 2026-05-04 02:33 | 48.34484 | -89.39881 | 1925 ft | 136 kts | 219° |
| 2026-05-04 02:33 | 48.33900 | -89.40185 | 1929 ft | 139 kts | 183° |
| 2026-05-04 02:33 | 48.33037 | -89.39480 | 1936 ft | 153 kts | 133° |
| 2026-05-04 02:33 | 48.32532 | -89.38064 | 1928 ft | 158 kts | 106° |
| 2026-05-04 02:34 | 48.32685 | -89.36432 | 1939 ft | 160 kts | 76° |
| 2026-05-04 02:34 | 48.32987 | -89.34811 | 1955 ft | 162 kts | 76° |
| 2026-05-04 02:34 | 48.33307 | -89.33169 | 1948 ft | 164 kts | 77° |
| 2026-05-04 02:34 | 48.33645 | -89.31560 | 1922 ft | 158 kts | 62° |
| 2026-05-04 02:35 | 48.34474 | -89.30635 | 1935 ft | 152 kts | 8° |
| 2026-05-04 02:35 | 48.35446 | -89.30965 | 1935 ft | 141 kts | 315° |
| 2026-05-04 02:35 | 48.35811 | -89.32214 | 1938 ft | 129 kts | 259° |
| 2026-05-04 02:35 | 48.35625 | -89.33486 | 1940 ft | 123 kts | 254° |
| 2026-05-04 02:36 | 48.35428 | -89.34752 | 1953 ft | 126 kts | 254° |
| 2026-05-04 02:36 | 48.35226 | -89.36056 | 1947 ft | 128 kts | 254° |
| 2026-05-04 02:36 | 48.35009 | -89.37363 | 1949 ft | 131 kts | 252° |
| 2026-05-04 02:36 | 48.34790 | -89.38689 | 1945 ft | 129 kts | 252° |
| 2026-05-04 02:37 | 48.34646 | -89.40011 | 1946 ft | 128 kts | 287° |
| 2026-05-04 02:37 | 48.35442 | -89.40239 | 2367 ft | 151 kts | 62° |
| 2026-05-04 02:37 | 48.35889 | -89.38701 | 1937 ft | 167 kts | 75° |
| 2026-05-04 02:37 | 48.36217 | -89.37074 | 1475 ft | 153 kts | 75° |
| 2026-05-04 02:38 | 48.36486 | -89.35646 | 1062 ft | 129 kts | 73° |
| 2026-05-04 02:38 | 48.36752 | -89.34475 | 815 ft | 110 kts | 73° |
| 2026-05-04 02:38 | 48.36998 | -89.33456 | 671 ft | 98 kts | 72° |
| 2026-05-04 02:38 | 48.37195 | -89.32577 | 654 ft | 78 kts | 70° |
| 2026-05-04 02:39 | 48.37373 | -89.31815 | 650 ft | 94 kts | 72° |
| 2026-05-04 02:39 | 48.37612 | -89.30813 | 999 ft | 106 kts | 70° |
| 2026-05-04 02:39 | 48.37888 | -89.29768 | 1465 ft | 111 kts | 66° |
| 2026-05-04 02:39 | 48.38301 | -89.28565 | 1417 ft | 141 kts | 61° |
| 2026-05-04 02:40 | 48.38850 | -89.29073 | 1313 ft | 135 kts | 256° |
| 2026-05-04 02:40 | 48.38635 | -89.30529 | 1223 ft | 151 kts | 262° |
| 2026-05-04 02:40 | 48.38708 | -89.32112 | 1335 ft | 148 kts | 276° |
| 2026-05-04 02:40 | 48.38868 | -89.33636 | 1356 ft | 154 kts | 278° |
| 2026-05-04 02:41 | 48.39059 | -89.35148 | 1614 ft | 143 kts | 278° |
| 2026-05-04 02:41 | 48.39241 | -89.36626 | 1722 ft | 147 kts | 274° |
| 2026-05-04 02:41 | 48.39242 | -89.38122 | 1819 ft | 128 kts | 254° |
| 2026-05-04 02:41 | 48.38788 | -89.39120 | 1621 ft | 117 kts | 216° |
| 2026-05-04 02:42 | 48.38046 | -89.39521 | 1398 ft | 114 kts | 183° |
| 2026-05-04 02:42 | 48.37367 | -89.39000 | 1280 ft | 105 kts | 119° |
| 2026-05-04 02:42 | 48.37156 | -89.38043 | 1186 ft | 98 kts | 118° |
| 2026-05-04 02:42 | 48.36863 | -89.37126 | 1147 ft | 95 kts | 119° |
| 2026-05-04 02:43 | 48.36647 | -89.36088 | 1134 ft | 110 kts | 100° |
| 2026-05-04 02:43 | 48.36645 | -89.34964 | 946 ft | 110 kts | 81° |
| 2026-05-04 02:43 | 48.36889 | -89.33873 | 741 ft | 107 kts | 71° |
| 2026-05-04 02:43 | 48.37123 | -89.32898 | 660 ft | 92 kts | 72° |
| 2026-05-04 02:44 | 48.37278 | -89.32227 | 651 ft | 42 kts | 74° |
| 2026-05-04 02:44 | 48.37352 | -89.31896 | 651 ft | 19 kts | 70° |
| 2026-05-04 02:44 | 48.37419 | -89.31846 | 652 ft | 18 kts | 339° |
| 2026-05-04 02:44 | 48.37497 | -89.31884 | 652 ft | 13 kts | 339° |
| 2026-05-04 02:45 | 48.37570 | -89.31908 | 652 ft | 11 kts | 342° |
| 2026-05-04 02:45 | 48.37617 | -89.31935 | 652 ft | 2 kts | 307° |
| 2026-05-04 02:45 | 48.37628 | -89.31995 | 654 ft | 8 kts | 341° |
| 2026-05-04 02:45 | 48.37639 | -89.31986 | 652 ft | 2 kts | 75° |
| 2026-05-04 02:46 | 48.37629 | -89.31903 | 654 ft | 3 kts | 63° |
| 2026-05-04 02:46 | 48.37646 | -89.31901 | 653 ft | 2 kts | 311° |
| 2026-05-04 02:46 | 48.37647 | -89.31905 | 653 ft | 0 kts | 280° |
| 2026-05-04 02:46 | 48.37646 | -89.31901 | 653 ft | 0 kts | 276° |
| 2026-05-04 02:47 | 48.37646 | -89.31890 | 653 ft | 0 kts | 267° |